This is the latest recevied weather packets stored in our database for station/object IZ8NVY-11. If no packets are shown the sender has not sent any weather packets the latest 10 day(s).
| Time | Temp. | Humidity | Pressure | Rain* | Wind** | Luminosity | Snow |
|---|---|---|---|---|---|---|---|
| 1777768429 | 12.78° C | 36% | 886.7 hPa | - | - | - | - |
| 1777764828 | 12.22° C | 37% | 887.3 hPa | - | - | - | - |
| 1777761227 | 11.11° C | 40% | 888 hPa | - | - | - | - |
| 1777757626 | 11.11° C | 40% | 887.9 hPa | - | - | - | - |
| 1777754026 | 11.67° C | 39% | 887.9 hPa | - | - | - | - |
| 1777750427 | 11.67° C | 41% | 887.6 hPa | - | - | - | - |
| 1777746824 | 11.67° C | 41% | 887.1 hPa | - | - | - | - |
| 1777743223 | 13.89° C | 38% | 886.8 hPa | - | - | - | - |
| 1777739622 | 16.67° C | 36% | 886.9 hPa | - | - | - | - |
| 1777736022 | 18.89° C | 33% | 886.6 hPa | - | - | - | - |
| 1777732421 | 20° C | 33% | 886.8 hPa | - | - | - | - |
| 1777728820 | 18.33° C | 34% | 887.5 hPa | - | - | - | - |
| 1777725220 | 17.22° C | 36% | 887.7 hPa | - | - | - | - |
| 1777721619 | 16.11° C | 40% | 887.7 hPa | - | - | - | - |
| 1777718018 | 16.67° C | 37% | 887.7 hPa | - | - | - | - |
| 1777714417 | 14.44° C | 39% | 887.5 hPa | - | - | - | - |
| 1777710817 | 12.78° C | 44% | 887.7 hPa | - | - | - | - |
| 1777707216 | 13.33° C | 47% | 887.6 hPa | - | - | - | - |
| 1777703615 | 12.22° C | 55% | 887.2 hPa | - | - | - | - |
| 1777700014 | 8.33° C | 61% | 886.9 hPa | - | - | - | - |
| 1777696414 | 7.78° C | 60% | 886.4 hPa | - | - | - | - |
| 1777692813 | 7.78° C | 61% | 886.3 hPa | - | - | - | - |
| 1777689212 | 7.78° C | 59% | 886.2 hPa | - | - | - | - |
| 1777685611 | 7.78° C | 56% | 886.5 hPa | - | - | - | - |
| 1777682011 | 8.33° C | 54% | 886.5 hPa | - | - | - | - |
* Rain since midnight (hover to see other rain measurements)
** Current wind speed in m/s (hover to see current wind gust speed)